sensor_id;sensor_type;location;lat;lon;timestamp;P1;durP1;ratioP1;P2;durP2;ratioP2
19291;SDS011;9779;51.756;7.450;2023-07-13T00:00:33;4.30;;;1.70;;
19291;SDS011;9779;51.756;7.450;2023-07-13T00:02:59;5.03;;;1.60;;
19291;SDS011;9779;51.756;7.450;2023-07-13T00:05:24;2.87;;;1.70;;
19291;SDS011;9779;51.756;7.450;2023-07-13T00:07:51;3.23;;;1.50;;
19291;SDS011;9779;51.756;7.450;2023-07-13T00:10:17;4.53;;;1.73;;
19291;SDS011;9779;51.756;7.450;2023-07-13T00:12:43;4.13;;;1.70;;
19291;SDS011;9779;51.756;7.450;2023-07-13T00:15:13;1.70;;;1.47;;
19291;SDS011;9779;51.756;7.450;2023-07-13T00:17:41;2.37;;;1.27;;
19291;SDS011;9779;51.756;7.450;2023-07-13T00:20:07;4.10;;;1.97;;
19291;SDS011;9779;51.756;7.450;2023-07-13T00:22:33;3.67;;;1.83;;
19291;SDS011;9779;51.756;7.450;2023-07-13T00:24:59;4.93;;;1.50;;
19291;SDS011;9779;51.756;7.450;2023-07-13T00:27:26;3.73;;;1.90;;
19291;SDS011;9779;51.756;7.450;2023-07-13T00:29:52;2.63;;;1.77;;
19291;SDS011;9779;51.756;7.450;2023-07-13T00:32:18;3.37;;;1.73;;
19291;SDS011;9779;51.756;7.450;2023-07-13T00:34:44;1.90;;;1.50;;
19291;SDS011;9779;51.756;7.450;2023-07-13T00:37:09;2.87;;;1.67;;
19291;SDS011;9779;51.756;7.450;2023-07-13T00:39:36;15.57;;;2.30;;
19291;SDS011;9779;51.756;7.450;2023-07-13T00:42:02;9.10;;;2.40;;
19291;SDS011;9779;51.756;7.450;2023-07-13T00:44:28;2.73;;;1.60;;
19291;SDS011;9779;51.756;7.450;2023-07-13T00:46:54;4.53;;;1.73;;
19291;SDS011;9779;51.756;7.450;2023-07-13T00:49:22;2.90;;;2.03;;
19291;SDS011;9779;51.756;7.450;2023-07-13T00:51:55;4.70;;;1.70;;
19291;SDS011;9779;51.756;7.450;2023-07-13T00:54:31;4.43;;;2.10;;
19291;SDS011;9779;51.756;7.450;2023-07-13T00:57:00;2.17;;;1.17;;
19291;SDS011;9779;51.756;7.450;2023-07-13T00:59:28;3.13;;;1.60;;
19291;SDS011;9779;51.756;7.450;2023-07-13T01:01:55;3.50;;;1.47;;
19291;SDS011;9779;51.756;7.450;2023-07-13T01:04:23;3.47;;;1.40;;
19291;SDS011;9779;51.756;7.450;2023-07-13T01:06:49;3.60;;;1.90;;
19291;SDS011;9779;51.756;7.450;2023-07-13T01:09:15;2.93;;;1.57;;
19291;SDS011;9779;51.756;7.450;2023-07-13T01:11:41;3.20;;;1.50;;
19291;SDS011;9779;51.756;7.450;2023-07-13T01:14:07;2.07;;;1.50;;
19291;SDS011;9779;51.756;7.450;2023-07-13T01:16:34;4.90;;;2.23;;
19291;SDS011;9779;51.756;7.450;2023-07-13T01:19:01;4.43;;;2.07;;
19291;SDS011;9779;51.756;7.450;2023-07-13T01:21:32;6.97;;;2.10;;
19291;SDS011;9779;51.756;7.450;2023-07-13T01:23:58;6.93;;;1.70;;
19291;SDS011;9779;51.756;7.450;2023-07-13T01:26:24;5.13;;;1.90;;
19291;SDS011;9779;51.756;7.450;2023-07-13T01:28:50;5.63;;;1.90;;
19291;SDS011;9779;51.756;7.450;2023-07-13T01:31:15;2.73;;;1.57;;
19291;SDS011;9779;51.756;7.450;2023-07-13T01:33:42;1.67;;;1.37;;
19291;SDS011;9779;51.756;7.450;2023-07-13T01:36:08;3.20;;;1.70;;
19291;SDS011;9779;51.756;7.450;2023-07-13T01:38:35;3.63;;;1.50;;
19291;SDS011;9779;51.756;7.450;2023-07-13T01:41:01;6.97;;;1.67;;
19291;SDS011;9779;51.756;7.450;2023-07-13T01:43:29;4.20;;;1.93;;
19291;SDS011;9779;51.756;7.450;2023-07-13T01:45:55;2.37;;;1.47;;
19291;SDS011;9779;51.756;7.450;2023-07-13T01:48:21;4.47;;;1.63;;
19291;SDS011;9779;51.756;7.450;2023-07-13T01:50:47;7.30;;;2.03;;
19291;SDS011;9779;51.756;7.450;2023-07-13T01:53:13;2.63;;;1.70;;
19291;SDS011;9779;51.756;7.450;2023-07-13T01:55:38;5.23;;;2.03;;
19291;SDS011;9779;51.756;7.450;2023-07-13T01:58:04;8.40;;;2.10;;
19291;SDS011;9779;51.756;7.450;2023-07-13T02:00:30;5.03;;;1.70;;
19291;SDS011;9779;51.756;7.450;2023-07-13T02:02:56;3.47;;;1.57;;
19291;SDS011;9779;51.756;7.450;2023-07-13T02:05:22;4.60;;;1.87;;
19291;SDS011;9779;51.756;7.450;2023-07-13T02:07:48;7.77;;;1.97;;
19291;SDS011;9779;51.756;7.450;2023-07-13T02:10:14;4.27;;;1.57;;
19291;SDS011;9779;51.756;7.450;2023-07-13T02:12:40;3.27;;;1.70;;
19291;SDS011;9779;51.756;7.450;2023-07-13T02:15:06;2.37;;;1.50;;
19291;SDS011;9779;51.756;7.450;2023-07-13T02:17:33;4.37;;;2.20;;
19291;SDS011;9779;51.756;7.450;2023-07-13T02:20:00;4.67;;;1.60;;
19291;SDS011;9779;51.756;7.450;2023-07-13T02:22:26;2.40;;;1.47;;
19291;SDS011;9779;51.756;7.450;2023-07-13T02:24:52;6.97;;;1.93;;
19291;SDS011;9779;51.756;7.450;2023-07-13T02:27:18;4.07;;;1.90;;
19291;SDS011;9779;51.756;7.450;2023-07-13T02:29:43;7.07;;;1.63;;
19291;SDS011;9779;51.756;7.450;2023-07-13T02:32:09;5.83;;;2.03;;
19291;SDS011;9779;51.756;7.450;2023-07-13T02:34:35;5.30;;;1.70;;
19291;SDS011;9779;51.756;7.450;2023-07-13T02:37:00;2.40;;;2.00;;
19291;SDS011;9779;51.756;7.450;2023-07-13T02:39:26;5.83;;;2.13;;
19291;SDS011;9779;51.756;7.450;2023-07-13T02:41:52;6.80;;;2.27;;
19291;SDS011;9779;51.756;7.450;2023-07-13T02:44:17;3.70;;;1.73;;
19291;SDS011;9779;51.756;7.450;2023-07-13T02:46:43;3.47;;;1.77;;
19291;SDS011;9779;51.756;7.450;2023-07-13T02:49:09;5.93;;;1.83;;
19291;SDS011;9779;51.756;7.450;2023-07-13T02:51:35;15.77;;;2.20;;
19291;SDS011;9779;51.756;7.450;2023-07-13T02:54:02;4.23;;;1.43;;
19291;SDS011;9779;51.756;7.450;2023-07-13T02:56:29;7.20;;;2.17;;
19291;SDS011;9779;51.756;7.450;2023-07-13T02:58:55;2.73;;;2.03;;
19291;SDS011;9779;51.756;7.450;2023-07-13T03:01:21;7.13;;;1.50;;
19291;SDS011;9779;51.756;7.450;2023-07-13T03:03:50;3.57;;;1.90;;
19291;SDS011;9779;51.756;7.450;2023-07-13T03:06:17;8.53;;;2.10;;
19291;SDS011;9779;51.756;7.450;2023-07-13T03:08:43;2.03;;;1.50;;
19291;SDS011;9779;51.756;7.450;2023-07-13T03:11:12;2.20;;;1.43;;
19291;SDS011;9779;51.756;7.450;2023-07-13T03:13:39;5.07;;;1.67;;
19291;SDS011;9779;51.756;7.450;2023-07-13T03:16:05;6.83;;;1.70;;
19291;SDS011;9779;51.756;7.450;2023-07-13T03:18:31;5.57;;;2.20;;
19291;SDS011;9779;51.756;7.450;2023-07-13T03:20:57;5.13;;;1.50;;
19291;SDS011;9779;51.756;7.450;2023-07-13T03:23:23;6.40;;;1.90;;
19291;SDS011;9779;51.756;7.450;2023-07-13T03:25:49;4.97;;;2.00;;
19291;SDS011;9779;51.756;7.450;2023-07-13T03:28:25;3.93;;;1.90;;
19291;SDS011;9779;51.756;7.450;2023-07-13T03:30:58;2.87;;;1.33;;
19291;SDS011;9779;51.756;7.450;2023-07-13T03:33:24;11.70;;;1.90;;
19291;SDS011;9779;51.756;7.450;2023-07-13T03:35:50;5.50;;;1.67;;
19291;SDS011;9779;51.756;7.450;2023-07-13T03:38:16;2.13;;;1.60;;
19291;SDS011;9779;51.756;7.450;2023-07-13T03:40:41;3.17;;;1.27;;
19291;SDS011;9779;51.756;7.450;2023-07-13T03:43:07;7.23;;;1.43;;
19291;SDS011;9779;51.756;7.450;2023-07-13T03:45:32;2.97;;;1.50;;
19291;SDS011;9779;51.756;7.450;2023-07-13T03:47:58;5.07;;;2.10;;
19291;SDS011;9779;51.756;7.450;2023-07-13T03:50:23;4.90;;;1.60;;
19291;SDS011;9779;51.756;7.450;2023-07-13T03:52:49;5.90;;;1.40;;
19291;SDS011;9779;51.756;7.450;2023-07-13T03:55:15;14.90;;;2.27;;
19291;SDS011;9779;51.756;7.450;2023-07-13T03:57:41;4.43;;;1.40;;
19291;SDS011;9779;51.756;7.450;2023-07-13T04:00:07;8.30;;;1.40;;
19291;SDS011;9779;51.756;7.450;2023-07-13T04:02:33;2.77;;;1.50;;
19291;SDS011;9779;51.756;7.450;2023-07-13T04:04:59;2.60;;;1.40;;
19291;SDS011;9779;51.756;7.450;2023-07-13T04:07:24;5.93;;;1.60;;
19291;SDS011;9779;51.756;7.450;2023-07-13T04:09:50;2.60;;;1.60;;
19291;SDS011;9779;51.756;7.450;2023-07-13T04:12:15;7.33;;;1.63;;
19291;SDS011;9779;51.756;7.450;2023-07-13T04:14:41;3.60;;;1.40;;
19291;SDS011;9779;51.756;7.450;2023-07-13T04:17:06;7.87;;;2.00;;
19291;SDS011;9779;51.756;7.450;2023-07-13T04:19:32;6.13;;;1.60;;
19291;SDS011;9779;51.756;7.450;2023-07-13T04:21:58;8.77;;;1.53;;
19291;SDS011;9779;51.756;7.450;2023-07-13T04:24:23;3.53;;;1.53;;
19291;SDS011;9779;51.756;7.450;2023-07-13T04:26:49;2.70;;;1.60;;
19291;SDS011;9779;51.756;7.450;2023-07-13T04:29:14;7.57;;;1.90;;
19291;SDS011;9779;51.756;7.450;2023-07-13T04:31:40;8.10;;;1.77;;
19291;SDS011;9779;51.756;7.450;2023-07-13T04:34:05;8.53;;;1.93;;
19291;SDS011;9779;51.756;7.450;2023-07-13T04:36:31;5.50;;;1.60;;
19291;SDS011;9779;51.756;7.450;2023-07-13T04:38:57;6.67;;;1.70;;
19291;SDS011;9779;51.756;7.450;2023-07-13T04:41:22;4.37;;;1.70;;
19291;SDS011;9779;51.756;7.450;2023-07-13T04:43:48;3.80;;;1.50;;
19291;SDS011;9779;51.756;7.450;2023-07-13T04:46:14;3.73;;;1.57;;
19291;SDS011;9779;51.756;7.450;2023-07-13T04:48:43;8.33;;;1.80;;
19291;SDS011;9779;51.756;7.450;2023-07-13T04:51:09;3.90;;;1.80;;
19291;SDS011;9779;51.756;7.450;2023-07-13T04:53:35;4.77;;;1.90;;
19291;SDS011;9779;51.756;7.450;2023-07-13T04:56:01;4.63;;;1.67;;
19291;SDS011;9779;51.756;7.450;2023-07-13T04:58:28;6.33;;;1.90;;
19291;SDS011;9779;51.756;7.450;2023-07-13T05:00:59;2.83;;;1.60;;
19291;SDS011;9779;51.756;7.450;2023-07-13T05:03:28;4.63;;;1.50;;
19291;SDS011;9779;51.756;7.450;2023-07-13T05:05:58;5.07;;;1.57;;
19291;SDS011;9779;51.756;7.450;2023-07-13T05:08:29;7.80;;;1.57;;
19291;SDS011;9779;51.756;7.450;2023-07-13T05:10:54;10.60;;;2.63;;
19291;SDS011;9779;51.756;7.450;2023-07-13T05:13:20;6.20;;;1.70;;
19291;SDS011;9779;51.756;7.450;2023-07-13T05:15:47;5.50;;;1.80;;
19291;SDS011;9779;51.756;7.450;2023-07-13T05:18:21;2.43;;;1.43;;
19291;SDS011;9779;51.756;7.450;2023-07-13T05:20:46;8.97;;;1.97;;
19291;SDS011;9779;51.756;7.450;2023-07-13T05:23:12;3.03;;;1.63;;
19291;SDS011;9779;51.756;7.450;2023-07-13T05:25:37;5.40;;;1.60;;
19291;SDS011;9779;51.756;7.450;2023-07-13T05:28:03;6.90;;;2.17;;
19291;SDS011;9779;51.756;7.450;2023-07-13T05:30:29;3.63;;;1.70;;
19291;SDS011;9779;51.756;7.450;2023-07-13T05:32:55;8.63;;;1.87;;
19291;SDS011;9779;51.756;7.450;2023-07-13T05:35:20;8.77;;;1.80;;
19291;SDS011;9779;51.756;7.450;2023-07-13T05:37:46;7.50;;;1.83;;
19291;SDS011;9779;51.756;7.450;2023-07-13T05:40:11;4.57;;;2.20;;
19291;SDS011;9779;51.756;7.450;2023-07-13T05:42:37;9.60;;;2.63;;
19291;SDS011;9779;51.756;7.450;2023-07-13T05:45:03;4.03;;;1.70;;
19291;SDS011;9779;51.756;7.450;2023-07-13T05:47:29;6.17;;;1.70;;
19291;SDS011;9779;51.756;7.450;2023-07-13T05:49:54;3.30;;;1.60;;
19291;SDS011;9779;51.756;7.450;2023-07-13T05:52:20;6.53;;;1.67;;
19291;SDS011;9779;51.756;7.450;2023-07-13T05:54:45;4.97;;;2.00;;
19291;SDS011;9779;51.756;7.450;2023-07-13T05:57:11;4.03;;;2.17;;
19291;SDS011;9779;51.756;7.450;2023-07-13T05:59:36;5.80;;;1.90;;
19291;SDS011;9779;51.756;7.450;2023-07-13T06:02:02;4.97;;;1.97;;
19291;SDS011;9779;51.756;7.450;2023-07-13T06:04:28;6.60;;;1.83;;
19291;SDS011;9779;51.756;7.450;2023-07-13T06:06:53;5.73;;;2.00;;
19291;SDS011;9779;51.756;7.450;2023-07-13T06:09:19;5.57;;;1.90;;
19291;SDS011;9779;51.756;7.450;2023-07-13T06:11:44;9.00;;;2.70;;
19291;SDS011;9779;51.756;7.450;2023-07-13T06:14:10;4.80;;;2.37;;
19291;SDS011;9779;51.756;7.450;2023-07-13T06:16:35;6.90;;;2.33;;
19291;SDS011;9779;51.756;7.450;2023-07-13T06:19:01;7.40;;;2.50;;
19291;SDS011;9779;51.756;7.450;2023-07-13T06:21:26;5.87;;;2.60;;
19291;SDS011;9779;51.756;7.450;2023-07-13T06:23:52;8.03;;;2.80;;
19291;SDS011;9779;51.756;7.450;2023-07-13T06:26:19;7.03;;;2.70;;
19291;SDS011;9779;51.756;7.450;2023-07-13T06:28:48;9.07;;;3.10;;
19291;SDS011;9779;51.756;7.450;2023-07-13T06:31:14;7.40;;;3.00;;
19291;SDS011;9779;51.756;7.450;2023-07-13T06:33:40;11.77;;;3.20;;
19291;SDS011;9779;51.756;7.450;2023-07-13T06:36:06;7.87;;;3.10;;
19291;SDS011;9779;51.756;7.450;2023-07-13T06:38:33;4.33;;;2.97;;
19291;SDS011;9779;51.756;7.450;2023-07-13T06:40:58;8.97;;;3.00;;
19291;SDS011;9779;51.756;7.450;2023-07-13T06:43:24;7.70;;;3.17;;
19291;SDS011;9779;51.756;7.450;2023-07-13T06:45:50;13.60;;;3.70;;
19291;SDS011;9779;51.756;7.450;2023-07-13T06:48:17;10.30;;;3.50;;
19291;SDS011;9779;51.756;7.450;2023-07-13T06:50:43;10.73;;;2.97;;
19291;SDS011;9779;51.756;7.450;2023-07-13T06:53:10;8.33;;;2.77;;
19291;SDS011;9779;51.756;7.450;2023-07-13T06:55:36;7.57;;;3.10;;
19291;SDS011;9779;51.756;7.450;2023-07-13T06:58:02;8.43;;;3.67;;
19291;SDS011;9779;51.756;7.450;2023-07-13T07:00:28;11.17;;;3.27;;
19291;SDS011;9779;51.756;7.450;2023-07-13T07:02:54;8.33;;;3.40;;
19291;SDS011;9779;51.756;7.450;2023-07-13T07:05:19;7.83;;;3.60;;
19291;SDS011;9779;51.756;7.450;2023-07-13T07:07:46;15.10;;;3.17;;
19291;SDS011;9779;51.756;7.450;2023-07-13T07:10:16;12.77;;;3.47;;
19291;SDS011;9779;51.756;7.450;2023-07-13T07:12:42;9.10;;;3.00;;
19291;SDS011;9779;51.756;7.450;2023-07-13T07:15:08;4.97;;;2.83;;
19291;SDS011;9779;51.756;7.450;2023-07-13T07:17:34;12.20;;;3.90;;
19291;SDS011;9779;51.756;7.450;2023-07-13T07:19:59;10.20;;;3.53;;
19291;SDS011;9779;51.756;7.450;2023-07-13T07:22:25;11.30;;;3.30;;
19291;SDS011;9779;51.756;7.450;2023-07-13T07:24:52;9.03;;;3.40;;
19291;SDS011;9779;51.756;7.450;2023-07-13T07:27:18;8.10;;;3.70;;
19291;SDS011;9779;51.756;7.450;2023-07-13T07:29:44;10.60;;;3.60;;
19291;SDS011;9779;51.756;7.450;2023-07-13T07:32:10;8.57;;;4.00;;
19291;SDS011;9779;51.756;7.450;2023-07-13T07:34:35;7.40;;;3.53;;
19291;SDS011;9779;51.756;7.450;2023-07-13T07:37:01;8.60;;;3.50;;
19291;SDS011;9779;51.756;7.450;2023-07-13T07:39:27;7.87;;;4.20;;
19291;SDS011;9779;51.756;7.450;2023-07-13T07:41:53;13.67;;;4.20;;
19291;SDS011;9779;51.756;7.450;2023-07-13T07:44:18;6.83;;;4.07;;
19291;SDS011;9779;51.756;7.450;2023-07-13T07:46:44;6.93;;;3.90;;
19291;SDS011;9779;51.756;7.450;2023-07-13T07:49:10;9.27;;;4.87;;
19291;SDS011;9779;51.756;7.450;2023-07-13T07:51:36;7.10;;;3.87;;
19291;SDS011;9779;51.756;7.450;2023-07-13T07:54:01;5.80;;;4.03;;
19291;SDS011;9779;51.756;7.450;2023-07-13T07:56:28;11.50;;;4.53;;
19291;SDS011;9779;51.756;7.450;2023-07-13T07:58:53;6.47;;;3.67;;
19291;SDS011;9779;51.756;7.450;2023-07-13T08:01:19;9.23;;;3.80;;
19291;SDS011;9779;51.756;7.450;2023-07-13T08:03:44;4.47;;;3.73;;
19291;SDS011;9779;51.756;7.450;2023-07-13T08:06:10;11.10;;;4.97;;
19291;SDS011;9779;51.756;7.450;2023-07-13T08:08:35;7.80;;;4.17;;
19291;SDS011;9779;51.756;7.450;2023-07-13T08:11:07;6.70;;;4.00;;
19291;SDS011;9779;51.756;7.450;2023-07-13T08:13:34;10.40;;;4.83;;
19291;SDS011;9779;51.756;7.450;2023-07-13T08:16:00;14.23;;;4.47;;
19291;SDS011;9779;51.756;7.450;2023-07-13T08:18:26;9.43;;;4.70;;
19291;SDS011;9779;51.756;7.450;2023-07-13T08:20:53;8.20;;;4.50;;
19291;SDS011;9779;51.756;7.450;2023-07-13T08:23:21;11.27;;;4.77;;
19291;SDS011;9779;51.756;7.450;2023-07-13T08:25:50;10.93;;;4.43;;
19291;SDS011;9779;51.756;7.450;2023-07-13T08:28:17;8.17;;;4.73;;
19291;SDS011;9779;51.756;7.450;2023-07-13T08:30:42;6.70;;;5.30;;
19291;SDS011;9779;51.756;7.450;2023-07-13T08:33:08;11.03;;;4.53;;
19291;SDS011;9779;51.756;7.450;2023-07-13T08:35:33;7.17;;;5.00;;
19291;SDS011;9779;51.756;7.450;2023-07-13T08:37:59;8.00;;;5.20;;
19291;SDS011;9779;51.756;7.450;2023-07-13T08:40:25;10.07;;;5.83;;
19291;SDS011;9779;51.756;7.450;2023-07-13T08:42:54;14.43;;;6.47;;
19291;SDS011;9779;51.756;7.450;2023-07-13T08:53:51;6.27;;;4.80;;
19291;SDS011;9779;51.756;7.450;2023-07-13T08:56:24;7.77;;;4.93;;
19291;SDS011;9779;51.756;7.450;2023-07-13T08:59:12;12.67;;;5.67;;
19291;SDS011;9779;51.756;7.450;2023-07-13T09:05:03;6.93;;;4.53;;
19291;SDS011;9779;51.756;7.450;2023-07-13T09:08:29;10.17;;;3.70;;
19291;SDS011;9779;51.756;7.450;2023-07-13T09:10:30;7.83;;;3.47;;
19291;SDS011;9779;51.756;7.450;2023-07-13T09:13:05;6.47;;;3.60;;
19291;SDS011;9779;51.756;7.450;2023-07-13T09:15:48;4.33;;;3.63;;
19291;SDS011;9779;51.756;7.450;2023-07-13T09:20:52;4.23;;;3.00;;
19291;SDS011;9779;51.756;7.450;2023-07-13T09:23:30;5.90;;;2.90;;
19291;SDS011;9779;51.756;7.450;2023-07-13T09:26:15;3.73;;;1.87;;
19291;SDS011;9779;51.756;7.450;2023-07-13T09:28:45;4.25;;;2.38;;
19291;SDS011;9779;51.756;7.450;2023-07-13T09:31:26;3.07;;;1.90;;
19291;SDS011;9779;51.756;7.450;2023-07-13T09:33:58;6.63;;;1.60;;
19291;SDS011;9779;51.756;7.450;2023-07-13T09:39:14;4.97;;;1.88;;
19291;SDS011;9779;51.756;7.450;2023-07-13T09:44:36;5.18;;;1.90;;
19291;SDS011;9779;51.756;7.450;2023-07-13T09:47:12;3.40;;;1.70;;
19291;SDS011;9779;51.756;7.450;2023-07-13T09:49:44;4.57;;;2.08;;
19291;SDS011;9779;51.756;7.450;2023-07-13T09:52:11;5.65;;;2.13;;
19291;SDS011;9779;51.756;7.450;2023-07-13T09:54:39;4.10;;;1.77;;
19291;SDS011;9779;51.756;7.450;2023-07-13T09:57:13;6.30;;;1.77;;
19291;SDS011;9779;51.756;7.450;2023-07-13T09:59:43;6.10;;;2.40;;
19291;SDS011;9779;51.756;7.450;2023-07-13T10:07:29;4.88;;;2.83;;
19291;SDS011;9779;51.756;7.450;2023-07-13T10:09:58;6.43;;;2.22;;
19291;SDS011;9779;51.756;7.450;2023-07-13T10:12:29;3.65;;;2.22;;
19291;SDS011;9779;51.756;7.450;2023-07-13T10:15:00;12.00;;;2.38;;
19291;SDS011;9779;51.756;7.450;2023-07-13T10:17:29;8.27;;;3.25;;
19291;SDS011;9779;51.756;7.450;2023-07-13T10:19:59;6.90;;;3.08;;
19291;SDS011;9779;51.756;7.450;2023-07-13T10:25:15;4.07;;;2.80;;
19291;SDS011;9779;51.756;7.450;2023-07-13T10:27:47;3.80;;;2.72;;
19291;SDS011;9779;51.756;7.450;2023-07-13T10:30:29;6.82;;;2.80;;
19291;SDS011;9779;51.756;7.450;2023-07-13T10:33:01;10.13;;;3.00;;
19291;SDS011;9779;51.756;7.450;2023-07-13T10:35:29;5.95;;;3.28;;
19291;SDS011;9779;51.756;7.450;2023-07-13T10:38:03;3.40;;;2.60;;
19291;SDS011;9779;51.756;7.450;2023-07-13T10:40:43;5.05;;;2.75;;
19291;SDS011;9779;51.756;7.450;2023-07-13T10:43:19;6.18;;;3.13;;
19291;SDS011;9779;51.756;7.450;2023-07-13T10:46:08;3.17;;;2.90;;
19291;SDS011;9779;51.756;7.450;2023-07-13T10:48:39;8.65;;;3.75;;
19291;SDS011;9779;51.756;7.450;2023-07-13T10:51:06;4.60;;;3.05;;
19291;SDS011;9779;51.756;7.450;2023-07-13T10:53:35;4.78;;;2.70;;
19291;SDS011;9779;51.756;7.450;2023-07-13T10:56:02;7.50;;;2.83;;
19291;SDS011;9779;51.756;7.450;2023-07-13T10:58:39;9.63;;;3.45;;
19291;SDS011;9779;51.756;7.450;2023-07-13T11:01:16;5.38;;;2.35;;
19291;SDS011;9779;51.756;7.450;2023-07-13T11:03:55;9.25;;;2.20;;
19291;SDS011;9779;51.756;7.450;2023-07-13T11:08:55;5.22;;;2.00;;
19291;SDS011;9779;51.756;7.450;2023-07-13T11:18:45;3.33;;;1.90;;
19291;SDS011;9779;51.756;7.450;2023-07-13T11:21:19;3.33;;;1.70;;
19291;SDS011;9779;51.756;7.450;2023-07-13T11:23:53;3.42;;;1.70;;
19291;SDS011;9779;51.756;7.450;2023-07-13T11:31:51;3.10;;;2.22;;
19291;SDS011;9779;51.756;7.450;2023-07-13T11:34:21;4.35;;;1.73;;
19291;SDS011;9779;51.756;7.450;2023-07-13T11:36:56;3.70;;;1.75;;
19291;SDS011;9779;51.756;7.450;2023-07-13T11:39:57;4.50;;;1.65;;
19291;SDS011;9779;51.756;7.450;2023-07-13T11:42:17;2.53;;;1.77;;
19291;SDS011;9779;51.756;7.450;2023-07-13T11:44:45;3.90;;;1.42;;
19291;SDS011;9779;51.756;7.450;2023-07-13T11:47:18;4.25;;;1.58;;
19291;SDS011;9779;51.756;7.450;2023-07-13T11:49:50;2.95;;;1.13;;
19291;SDS011;9779;51.756;7.450;2023-07-13T11:52:19;5.32;;;1.48;;
19291;SDS011;9779;51.756;7.450;2023-07-13T11:54:52;5.85;;;1.80;;
19291;SDS011;9779;51.756;7.450;2023-07-13T11:59:59;2.42;;;1.13;;
19291;SDS011;9779;51.756;7.450;2023-07-13T12:02:38;2.35;;;1.33;;
19291;SDS011;9779;51.756;7.450;2023-07-13T12:05:09;4.57;;;1.50;;
19291;SDS011;9779;51.756;7.450;2023-07-13T12:07:38;7.47;;;1.73;;
19291;SDS011;9779;51.756;7.450;2023-07-13T12:15:18;4.68;;;2.00;;
19291;SDS011;9779;51.756;7.450;2023-07-13T12:17:44;1.70;;;1.17;;
19291;SDS011;9779;51.756;7.450;2023-07-13T12:20:57;3.97;;;1.15;;
19291;SDS011;9779;51.756;7.450;2023-07-13T12:23:05;2.70;;;1.50;;
19291;SDS011;9779;51.756;7.450;2023-07-13T12:25:31;3.10;;;1.42;;
19291;SDS011;9779;51.756;7.450;2023-07-13T12:27:56;1.33;;;1.23;;
19291;SDS011;9779;51.756;7.450;2023-07-13T12:30:26;2.30;;;1.27;;
19291;SDS011;9779;51.756;7.450;2023-07-13T12:33:10;3.35;;;1.35;;
19291;SDS011;9779;51.756;7.450;2023-07-13T12:35:41;5.70;;;1.65;;
19291;SDS011;9779;51.756;7.450;2023-07-13T12:38:12;2.90;;;1.55;;
19291;SDS011;9779;51.756;7.450;2023-07-13T12:40:39;1.83;;;1.13;;
19291;SDS011;9779;51.756;7.450;2023-07-13T12:43:09;3.30;;;1.63;;
19291;SDS011;9779;51.756;7.450;2023-07-13T12:45:40;3.13;;;1.10;;
19291;SDS011;9779;51.756;7.450;2023-07-13T12:48:39;2.65;;;1.17;;
19291;SDS011;9779;51.756;7.450;2023-07-13T12:51:08;2.47;;;1.20;;
19291;SDS011;9779;51.756;7.450;2023-07-13T12:53:38;4.57;;;1.33;;
19291;SDS011;9779;51.756;7.450;2023-07-13T12:56:08;2.60;;;1.20;;
19291;SDS011;9779;51.756;7.450;2023-07-13T12:58:43;2.88;;;1.60;;
19291;SDS011;9779;51.756;7.450;2023-07-13T13:01:11;2.25;;;1.48;;
19291;SDS011;9779;51.756;7.450;2023-07-13T13:03:39;2.58;;;1.40;;
19291;SDS011;9779;51.756;7.450;2023-07-13T13:08:48;3.97;;;1.50;;
19291;SDS011;9779;51.756;7.450;2023-07-13T13:11:15;2.95;;;1.65;;
19291;SDS011;9779;51.756;7.450;2023-07-13T13:13:42;4.78;;;1.40;;
19291;SDS011;9779;51.756;7.450;2023-07-13T13:16:12;5.18;;;1.40;;
19291;SDS011;9779;51.756;7.450;2023-07-13T13:18:39;3.05;;;1.52;;
19291;SDS011;9779;51.756;7.450;2023-07-13T13:34:07;5.53;;;1.80;;
19291;SDS011;9779;51.756;7.450;2023-07-13T13:36:39;5.27;;;2.43;;
19291;SDS011;9779;51.756;7.450;2023-07-13T13:39:24;3.37;;;2.17;;
19291;SDS011;9779;51.756;7.450;2023-07-13T13:41:59;4.07;;;2.17;;
19291;SDS011;9779;51.756;7.450;2023-07-13T13:44:24;5.13;;;2.00;;
19291;SDS011;9779;51.756;7.450;2023-07-13T13:46:51;3.93;;;2.37;;
19291;SDS011;9779;51.756;7.450;2023-07-13T13:49:22;3.53;;;1.70;;
19291;SDS011;9779;51.756;7.450;2023-07-13T13:51:52;1.63;;;1.40;;
19291;SDS011;9779;51.756;7.450;2023-07-13T13:54:19;3.13;;;1.40;;
19291;SDS011;9779;51.756;7.450;2023-07-13T13:56:47;1.47;;;1.10;;
19291;SDS011;9779;51.756;7.450;2023-07-13T13:59:14;1.50;;;1.10;;
19291;SDS011;9779;51.756;7.450;2023-07-13T14:01:40;1.90;;;1.30;;
19291;SDS011;9779;51.756;7.450;2023-07-13T14:04:09;2.20;;;1.10;;
19291;SDS011;9779;51.756;7.450;2023-07-13T14:06:46;0.80;;;0.80;;
19291;SDS011;9779;51.756;7.450;2023-07-13T14:09:13;1.33;;;1.20;;
19291;SDS011;9779;51.756;7.450;2023-07-13T14:11:40;4.17;;;1.80;;
19291;SDS011;9779;51.756;7.450;2023-07-13T14:14:25;2.03;;;1.57;;
19291;SDS011;9779;51.756;7.450;2023-07-13T14:16:54;2.23;;;1.30;;
19291;SDS011;9779;51.756;7.450;2023-07-13T14:19:21;3.57;;;1.30;;
19291;SDS011;9779;51.756;7.450;2023-07-13T14:21:48;2.80;;;1.87;;
19291;SDS011;9779;51.756;7.450;2023-07-13T14:24:14;2.20;;;1.53;;
19291;SDS011;9779;51.756;7.450;2023-07-13T14:26:40;2.63;;;1.50;;
19291;SDS011;9779;51.756;7.450;2023-07-13T14:29:14;1.73;;;1.37;;
19291;SDS011;9779;51.756;7.450;2023-07-13T14:31:42;1.93;;;1.50;;
19291;SDS011;9779;51.756;7.450;2023-07-13T14:34:09;2.63;;;1.63;;
19291;SDS011;9779;51.756;7.450;2023-07-13T14:36:39;2.30;;;2.10;;
19291;SDS011;9779;51.756;7.450;2023-07-13T14:39:28;3.63;;;1.57;;
19291;SDS011;9779;51.756;7.450;2023-07-13T14:41:54;4.00;;;1.70;;
19291;SDS011;9779;51.756;7.450;2023-07-13T14:44:21;1.73;;;1.63;;
19291;SDS011;9779;51.756;7.450;2023-07-13T14:46:50;2.40;;;1.80;;
19291;SDS011;9779;51.756;7.450;2023-07-13T14:49:30;2.67;;;1.80;;
19291;SDS011;9779;51.756;7.450;2023-07-13T14:52:20;4.63;;;1.50;;
19291;SDS011;9779;51.756;7.450;2023-07-13T14:54:48;1.83;;;1.60;;
19291;SDS011;9779;51.756;7.450;2023-07-13T14:57:18;1.90;;;1.57;;
19291;SDS011;9779;51.756;7.450;2023-07-13T14:59:45;2.33;;;1.50;;
19291;SDS011;9779;51.756;7.450;2023-07-13T15:04:47;1.57;;;1.37;;
19291;SDS011;9779;51.756;7.450;2023-07-13T15:07:13;2.57;;;1.60;;
19291;SDS011;9779;51.756;7.450;2023-07-13T15:09:40;2.33;;;1.57;;
19291;SDS011;9779;51.756;7.450;2023-07-13T15:12:06;2.37;;;1.60;;
19291;SDS011;9779;51.756;7.450;2023-07-13T15:14:32;2.60;;;1.70;;
19291;SDS011;9779;51.756;7.450;2023-07-13T15:16:58;4.20;;;1.80;;
19291;SDS011;9779;51.756;7.450;2023-07-13T15:19:27;2.77;;;1.57;;
19291;SDS011;9779;51.756;7.450;2023-07-13T15:21:54;1.90;;;1.80;;
19291;SDS011;9779;51.756;7.450;2023-07-13T15:24:22;3.07;;;2.00;;
19291;SDS011;9779;51.756;7.450;2023-07-13T15:26:49;5.27;;;1.73;;
19291;SDS011;9779;51.756;7.450;2023-07-13T15:29:15;1.97;;;1.57;;
19291;SDS011;9779;51.756;7.450;2023-07-13T15:31:42;2.20;;;2.00;;
19291;SDS011;9779;51.756;7.450;2023-07-13T15:34:15;2.60;;;1.83;;
19291;SDS011;9779;51.756;7.450;2023-07-13T15:36:42;4.30;;;2.17;;
19291;SDS011;9779;51.756;7.450;2023-07-13T15:39:08;5.28;;;1.92;;
19291;SDS011;9779;51.756;7.450;2023-07-13T15:41:43;2.83;;;2.00;;
19291;SDS011;9779;51.756;7.450;2023-07-13T15:46:47;3.70;;;1.98;;
19291;SDS011;9779;51.756;7.450;2023-07-13T15:49:13;3.45;;;1.88;;
19291;SDS011;9779;51.756;7.450;2023-07-13T15:51:39;2.00;;;1.70;;
19291;SDS011;9779;51.756;7.450;2023-07-13T15:54:04;2.47;;;2.25;;
19291;SDS011;9779;51.756;7.450;2023-07-13T15:56:34;3.03;;;1.80;;
19291;SDS011;9779;51.756;7.450;2023-07-13T15:59:03;5.72;;;1.88;;
19291;SDS011;9779;51.756;7.450;2023-07-13T16:01:29;2.67;;;1.80;;
19291;SDS011;9779;51.756;7.450;2023-07-13T16:03:56;6.57;;;2.03;;
19291;SDS011;9779;51.756;7.450;2023-07-13T16:06:23;6.40;;;2.13;;
19291;SDS011;9779;51.756;7.450;2023-07-13T16:08:54;2.33;;;1.70;;
19291;SDS011;9779;51.756;7.450;2023-07-13T16:11:24;1.73;;;1.45;;
19291;SDS011;9779;51.756;7.450;2023-07-13T16:13:57;103.78;;;68.32;;
19291;SDS011;9779;51.756;7.450;2023-07-13T16:16:26;59.05;;;32.70;;
19291;SDS011;9779;51.756;7.450;2023-07-13T16:18:55;121.30;;;56.28;;